createdAt,value
2023-05-06T00:00:12.938Z,3.72
2023-05-06T00:02:42.239Z,3.88
2023-05-06T00:05:10.026Z,4.13
2023-05-06T00:07:37.503Z,4.05
2023-05-06T00:10:05.877Z,4.03
2023-05-06T00:12:33.299Z,4.35
2023-05-06T00:15:00.503Z,4.38
2023-05-06T00:17:27.775Z,3.70
2023-05-06T00:19:56.216Z,3.22
2023-05-06T00:22:23.324Z,3.25
2023-05-06T00:24:50.582Z,3.80
2023-05-06T00:27:17.709Z,3.97
2023-05-06T00:29:44.885Z,3.80
2023-05-06T00:32:11.988Z,3.67
2023-05-06T00:34:39.176Z,3.58
2023-05-06T00:37:06.372Z,4.05
2023-05-06T00:39:34.611Z,3.88
2023-05-06T00:42:02.480Z,3.78
2023-05-06T00:44:30.199Z,3.80
2023-05-06T00:47:01.215Z,4.47
2023-05-06T00:49:30.160Z,3.60
2023-05-06T00:51:59.101Z,4.38
2023-05-06T00:54:26.989Z,4.32
2023-05-06T00:56:54.501Z,4.47
2023-05-06T00:59:23.420Z,4.75
2023-05-06T01:01:52.311Z,5.35
2023-05-06T01:04:20.000Z,5.15
2023-05-06T01:07:08.662Z,4.47
2023-05-06T01:09:38.770Z,5.20
2023-05-06T01:12:14.567Z,5.32
2023-05-06T01:14:56.082Z,6.15
2023-05-06T01:17:30.751Z,5.40
2023-05-06T01:20:01.729Z,4.95
2023-05-06T01:22:30.625Z,5.03
2023-05-06T01:24:57.768Z,4.70
2023-05-06T01:27:25.182Z,5.40
2023-05-06T01:29:52.400Z,4.93
2023-05-06T01:32:58.368Z,4.68
2023-05-06T01:36:02.035Z,4.32
2023-05-06T01:38:41.172Z,4.63
2023-05-06T01:41:09.743Z,3.88
2023-05-06T01:43:42.144Z,4.15
2023-05-06T01:46:15.980Z,3.97
2023-05-06T01:48:45.509Z,4.35
2023-05-06T01:51:12.983Z,3.92
2023-05-06T01:53:40.626Z,4.20
2023-05-06T01:56:07.875Z,3.92
2023-05-06T01:58:35.295Z,4.40
2023-05-06T02:01:02.519Z,3.70
2023-05-06T02:03:29.950Z,3.78
2023-05-06T02:05:57.203Z,3.80
2023-05-06T02:08:26.651Z,4.07
2023-05-06T02:10:53.956Z,4.22
2023-05-06T02:13:22.258Z,4.57
2023-05-06T02:15:54.304Z,4.20
2023-05-06T02:18:22.740Z,3.95
2023-05-06T02:20:50.525Z,4.00
2023-05-06T02:23:17.940Z,4.43
2023-05-06T02:25:46.687Z,4.05
2023-05-06T02:28:13.875Z,4.10
2023-05-06T02:30:41.011Z,4.13
2023-05-06T02:33:08.265Z,4.85
2023-05-06T02:35:35.437Z,4.05
2023-05-06T02:38:02.641Z,4.30
2023-05-06T02:40:29.844Z,3.53
2023-05-06T02:42:57.065Z,4.20
2023-05-06T02:45:24.259Z,3.45
2023-05-06T02:47:51.442Z,3.67
2023-05-06T02:50:18.656Z,3.60
2023-05-06T02:52:45.904Z,3.67
2023-05-06T02:55:13.028Z,3.42
2023-05-06T02:57:40.290Z,3.35
2023-05-06T03:00:08.100Z,3.15
2023-05-06T03:02:36.241Z,3.22
2023-05-06T03:05:06.213Z,3.03
2023-05-06T03:07:34.942Z,2.63
2023-05-06T03:10:02.338Z,3.38
2023-05-06T03:12:33.439Z,3.17
2023-05-06T03:15:00.637Z,3.35
2023-05-06T03:17:28.364Z,2.80
2023-05-06T03:19:55.736Z,2.85
2023-05-06T03:22:23.277Z,2.92
2023-05-06T03:24:50.608Z,2.92
2023-05-06T03:27:18.021Z,2.85
2023-05-06T03:29:49.386Z,3.63
2023-05-06T03:32:17.969Z,2.70
2023-05-06T03:34:45.047Z,3.03
2023-05-06T03:37:16.933Z,2.97
2023-05-06T03:39:49.079Z,2.88
2023-05-06T03:42:17.553Z,3.15
2023-05-06T03:44:46.469Z,2.67
2023-05-06T03:47:13.851Z,2.53
2023-05-06T03:49:41.021Z,3.45
2023-05-06T03:52:08.419Z,2.88
2023-05-06T03:54:36.142Z,3.00
2023-05-06T03:57:05.453Z,2.80
2023-05-06T03:59:33.007Z,2.40
2023-05-06T04:02:02.376Z,3.15
2023-05-06T04:04:29.956Z,3.30
2023-05-06T04:06:57.166Z,3.13
2023-05-06T04:09:24.598Z,3.05
2023-05-06T04:11:52.916Z,3.90
2023-05-06T04:14:20.162Z,3.45
2023-05-06T04:16:47.720Z,3.60
2023-05-06T04:19:14.854Z,3.30
2023-05-06T04:21:42.034Z,3.75
2023-05-06T04:24:12.003Z,4.20
2023-05-06T04:26:42.448Z,4.20
2023-05-06T04:29:10.151Z,3.58
2023-05-06T04:31:44.785Z,3.72
2023-05-06T04:34:13.369Z,3.80
2023-05-06T04:36:41.117Z,3.38
2023-05-06T04:39:26.839Z,3.08
2023-05-06T04:41:54.505Z,3.30
2023-05-06T04:44:29.649Z,3.78
2023-05-06T04:46:57.857Z,3.25
2023-05-06T04:49:25.621Z,3.50
2023-05-06T04:51:53.011Z,3.38
2023-05-06T04:54:20.139Z,3.63
2023-05-06T04:56:47.297Z,3.90
2023-05-06T04:59:17.458Z,3.95
2023-05-06T05:01:46.206Z,3.88
2023-05-06T05:04:13.410Z,3.85
2023-05-06T05:06:40.905Z,3.85
2023-05-06T05:09:10.723Z,3.97
2023-05-06T05:11:40.627Z,3.75
2023-05-06T05:14:08.529Z,3.63
2023-05-06T05:16:36.027Z,3.92
2023-05-06T05:19:05.303Z,3.78
2023-05-06T05:21:34.230Z,3.85
2023-05-06T05:24:01.828Z,4.20
2023-05-06T05:26:30.019Z,3.80
2023-05-06T05:28:59.290Z,3.70
2023-05-06T05:31:26.585Z,3.58
2023-05-06T05:33:53.835Z,3.50
2023-05-06T05:36:23.543Z,4.25
2023-05-06T05:38:54.444Z,3.35
2023-05-06T05:41:25.597Z,3.47
2023-05-06T05:43:54.036Z,4.15
2023-05-06T05:46:22.001Z,3.72
2023-05-06T05:48:50.760Z,3.97
2023-05-06T05:51:20.460Z,4.30
2023-05-06T05:53:47.701Z,3.50
2023-05-06T05:56:16.841Z,3.53
2023-05-06T05:58:47.507Z,3.70
2023-05-06T06:01:15.245Z,4.05
2023-05-06T06:03:42.849Z,3.25
2023-05-06T06:06:10.176Z,3.55
2023-05-06T06:08:37.695Z,3.10
2023-05-06T06:11:05.887Z,3.38
2023-05-06T06:13:38.414Z,4.20
2023-05-06T06:16:06.246Z,3.97
2023-05-06T06:18:34.321Z,3.72
2023-05-06T06:21:01.505Z,3.90
2023-05-06T06:23:29.008Z,3.72
2023-05-06T06:25:56.152Z,3.55
2023-05-06T06:28:23.552Z,3.25
2023-05-06T06:30:50.908Z,3.72
2023-05-06T06:33:18.106Z,3.50
2023-05-06T06:35:45.558Z,3.60
2023-05-06T06:38:12.752Z,3.60
2023-05-06T06:40:39.984Z,3.50
2023-05-06T06:43:07.165Z,3.70
2023-05-06T06:45:47.755Z,3.38
2023-05-06T06:48:15.489Z,3.70
2023-05-06T06:50:43.123Z,3.75
2023-05-06T06:53:10.979Z,4.32
2023-05-06T06:55:38.257Z,3.92
2023-05-06T06:58:05.552Z,2.92
2023-05-06T07:00:32.695Z,4.05
2023-05-06T07:02:59.876Z,4.00
2023-05-06T07:05:27.334Z,3.63
2023-05-06T07:07:55.664Z,3.67
2023-05-06T07:10:23.192Z,3.78
2023-05-06T07:12:50.313Z,3.72
2023-05-06T07:15:17.471Z,3.65
2023-05-06T07:17:44.762Z,4.03
2023-05-06T07:20:12.661Z,4.55
2023-05-06T07:22:41.386Z,3.40
2023-05-06T07:25:09.121Z,4.10
2023-05-06T07:27:36.822Z,3.65
2023-05-06T07:30:04.278Z,3.88
2023-05-06T07:32:31.489Z,4.03
2023-05-06T07:34:58.856Z,3.72
2023-05-06T07:37:26.022Z,4.40
2023-05-06T07:39:53.197Z,3.97
2023-05-06T07:42:20.402Z,4.03
2023-05-06T07:44:47.553Z,4.22
2023-05-06T07:47:26.285Z,4.47
2023-05-06T07:49:53.664Z,4.18
2023-05-06T07:52:20.933Z,3.72
2023-05-06T07:54:48.001Z,4.05
2023-05-06T07:57:16.617Z,4.38
2023-05-06T07:59:44.607Z,4.35
2023-05-06T08:02:11.766Z,4.30
2023-05-06T08:04:39.134Z,3.75
2023-05-06T08:07:07.022Z,3.83
2023-05-06T08:09:34.149Z,4.22
2023-05-06T08:12:01.299Z,4.47
2023-05-06T08:14:28.862Z,4.05
2023-05-06T08:16:56.147Z,4.28
2023-05-06T08:19:23.405Z,4.50
2023-05-06T08:21:50.629Z,4.15
2023-05-06T08:24:17.724Z,4.70
2023-05-06T08:26:44.912Z,3.90
2023-05-06T08:29:12.082Z,4.35
2023-05-06T08:31:39.166Z,4.07
2023-05-06T08:34:06.470Z,4.38
2023-05-06T08:36:33.704Z,4.32
2023-05-06T08:39:01.006Z,4.32
2023-05-06T08:41:30.572Z,3.95
2023-05-06T08:43:58.705Z,4.38
2023-05-06T08:46:27.639Z,4.90
2023-05-06T08:48:54.856Z,4.43
2023-05-06T08:51:28.931Z,5.00
2023-05-06T08:53:59.424Z,4.72
2023-05-06T08:56:29.670Z,4.53
2023-05-06T08:58:58.523Z,4.43
2023-05-06T09:01:29.201Z,4.38
2023-05-06T09:03:58.254Z,4.50
2023-05-06T09:06:25.573Z,3.90
2023-05-06T09:08:52.708Z,3.92
2023-05-06T09:11:30.294Z,4.18
2023-05-06T09:14:17.167Z,4.78
2023-05-06T09:16:46.917Z,4.00
2023-05-06T09:19:14.918Z,4.30
2023-05-06T09:21:46.909Z,4.15
2023-05-06T09:24:15.490Z,4.28
2023-05-06T09:26:44.228Z,4.35
2023-05-06T09:29:11.589Z,3.90
2023-05-06T09:31:46.376Z,4.03
2023-05-06T09:34:14.526Z,3.92
2023-05-06T09:36:41.836Z,3.28
2023-05-06T09:39:10.195Z,4.10
2023-05-06T09:41:37.572Z,3.97
2023-05-06T09:44:05.781Z,3.88
2023-05-06T09:46:33.173Z,3.40
2023-05-06T09:49:01.653Z,3.72
2023-05-06T09:51:31.088Z,3.72
2023-05-06T09:53:59.406Z,3.60
2023-05-06T09:56:27.003Z,3.55
2023-05-06T09:58:55.857Z,3.40
2023-05-06T10:01:35.367Z,3.50
2023-05-06T10:04:10.175Z,3.28
2023-05-06T10:06:40.768Z,3.60
2023-05-06T10:09:09.322Z,3.97
2023-05-06T10:11:36.865Z,3.15
2023-05-06T10:14:04.593Z,3.75
2023-05-06T10:16:33.926Z,3.60
2023-05-06T10:19:03.945Z,3.80
2023-05-06T10:21:34.566Z,3.60
2023-05-06T10:24:07.181Z,3.70
2023-05-06T10:26:37.681Z,3.95
2023-05-06T10:29:09.401Z,3.38
2023-05-06T10:31:44.672Z,3.15
2023-05-06T10:34:11.848Z,3.30
2023-05-06T10:36:40.703Z,3.33
2023-05-06T10:39:10.300Z,3.20
2023-05-06T10:41:37.877Z,3.88
2023-05-06T10:44:06.201Z,3.65
2023-05-06T10:47:00.630Z,3.92
2023-05-06T10:49:29.242Z,3.20
2023-05-06T10:52:15.164Z,3.97
2023-05-06T10:54:52.221Z,4.20
2023-05-06T10:57:22.703Z,3.28
2023-05-06T10:59:49.947Z,3.63
2023-05-06T11:02:20.928Z,3.53
2023-05-06T11:04:59.671Z,3.95
2023-05-06T11:07:27.345Z,3.72
2023-05-06T11:10:01.948Z,4.10
2023-05-06T11:13:19.440Z,3.70
2023-05-06T11:15:47.446Z,4.07
2023-05-06T11:18:26.987Z,4.07
2023-05-06T11:21:04.966Z,4.30
2023-05-06T11:23:47.250Z,4.03
2023-05-06T11:26:14.399Z,4.63
2023-05-06T11:28:47.123Z,4.82
2023-05-06T11:31:14.844Z,4.05
2023-05-06T11:33:47.156Z,4.18
2023-05-06T11:38:56.373Z,4.45
2023-05-06T11:41:23.610Z,4.25
2023-05-06T11:43:52.818Z,3.92
2023-05-06T11:46:21.388Z,4.20
2023-05-06T11:48:49.252Z,3.83
2023-05-06T11:51:21.671Z,4.05
2023-05-06T11:53:48.751Z,4.50
2023-05-06T11:56:15.899Z,5.20
2023-05-06T11:58:46.839Z,4.35
2023-05-06T12:01:13.997Z,4.15
2023-05-06T12:03:41.249Z,4.20
2023-05-06T12:06:08.452Z,4.60
2023-05-06T12:08:36.414Z,4.25
2023-05-06T12:11:06.432Z,4.20
2023-05-06T12:13:36.963Z,4.43
2023-05-06T12:16:05.926Z,4.07
2023-05-06T12:18:33.775Z,4.28
2023-05-06T12:21:04.325Z,4.50
2023-05-06T12:23:31.838Z,4.53
2023-05-06T12:26:04.148Z,4.75
2023-05-06T12:28:33.150Z,4.20
2023-05-06T12:31:01.382Z,4.43
2023-05-06T12:33:45.237Z,3.83
2023-05-06T12:36:12.427Z,4.28
2023-05-06T12:38:39.713Z,4.40
2023-05-06T12:41:09.955Z,4.88
2023-05-06T12:43:37.097Z,4.03
2023-05-06T12:46:08.986Z,4.35
2023-05-06T12:48:36.435Z,4.13
2023-05-06T12:51:22.188Z,4.13
2023-05-06T12:53:49.405Z,4.40
2023-05-06T12:56:16.672Z,5.07
2023-05-06T12:58:43.807Z,5.53
2023-05-06T13:01:10.993Z,4.72
2023-05-06T13:03:41.083Z,3.75
2023-05-06T13:06:08.473Z,4.13
2023-05-06T13:08:38.260Z,3.60
2023-05-06T13:11:05.467Z,3.67
2023-05-06T13:13:32.602Z,3.97
2023-05-06T13:15:59.825Z,3.88
2023-05-06T13:18:29.303Z,4.20
2023-05-06T13:20:56.895Z,4.63
2023-05-06T13:23:24.093Z,4.78
2023-05-06T13:26:03.473Z,4.53
2023-05-06T13:28:33.262Z,4.72
2023-05-06T13:31:00.430Z,4.22
2023-05-06T13:33:27.606Z,5.00
2023-05-06T13:35:54.757Z,4.30
2023-05-06T13:38:22.241Z,4.82
2023-05-06T13:40:54.105Z,4.15
2023-05-06T13:43:22.375Z,4.35
2023-05-06T13:45:49.527Z,4.65
2023-05-06T13:48:17.885Z,4.75
2023-05-06T13:50:46.565Z,4.68
2023-05-06T13:53:14.669Z,4.70
2023-05-06T13:55:42.911Z,4.50
2023-05-06T13:58:11.089Z,4.75
2023-05-06T14:00:38.455Z,4.25
2023-05-06T14:03:05.810Z,4.43
2023-05-06T14:05:33.147Z,4.45
2023-05-06T14:08:00.485Z,4.32
2023-05-06T14:10:27.651Z,4.45
2023-05-06T14:12:57.626Z,4.97
2023-05-06T14:15:24.748Z,4.90
2023-05-06T14:17:52.137Z,4.82
2023-05-06T14:20:19.308Z,5.32
2023-05-06T14:22:46.477Z,4.78
2023-05-06T14:25:14.057Z,5.10
2023-05-06T14:27:41.472Z,5.90
2023-05-06T14:30:09.802Z,5.28
2023-05-06T14:32:37.511Z,4.90
2023-05-06T14:35:05.206Z,5.75
2023-05-06T14:37:32.373Z,5.75
2023-05-06T14:39:59.550Z,5.53
2023-05-06T14:42:26.844Z,6.40
2023-05-06T14:44:54.333Z,6.75
2023-05-06T14:47:23.740Z,6.40
2023-05-06T14:49:50.940Z,6.63
2023-05-06T14:52:18.140Z,6.47
2023-05-06T14:54:45.435Z,6.85
2023-05-06T14:57:12.740Z,6.20
2023-05-06T14:59:39.920Z,7.45
2023-05-06T15:02:09.312Z,7.00
2023-05-06T15:04:37.145Z,7.20
2023-05-06T15:07:04.559Z,7.15
2023-05-06T15:09:31.742Z,7.03
2023-05-06T15:11:59.017Z,7.07
2023-05-06T15:14:26.416Z,6.32
2023-05-06T15:16:57.229Z,6.80
2023-05-06T15:19:24.806Z,6.43
2023-05-06T15:21:51.977Z,6.63
2023-05-06T15:24:19.114Z,7.05
2023-05-06T15:26:46.591Z,6.70
2023-05-06T15:29:13.752Z,6.57
2023-05-06T15:31:43.683Z,6.10
2023-05-06T15:34:12.147Z,6.13
2023-05-06T15:36:41.441Z,6.20
2023-05-06T15:39:08.843Z,6.30
2023-05-06T15:41:38.118Z,6.70
2023-05-06T15:44:06.384Z,5.88
2023-05-06T15:46:34.108Z,4.35
2023-05-06T15:51:31.744Z,4.18
2023-05-06T15:53:58.928Z,4.10
2023-05-06T15:56:27.030Z,3.78
2023-05-06T15:58:55.748Z,4.13
2023-05-06T16:01:45.010Z,4.85
2023-05-06T16:04:10.360Z,4.97
2023-05-06T16:06:37.576Z,5.15
2023-05-06T16:09:09.037Z,5.43
2023-05-06T16:11:36.193Z,5.73
2023-05-06T16:14:03.729Z,5.40
2023-05-06T16:16:31.096Z,5.65
2023-05-06T16:18:58.329Z,5.82
2023-05-06T16:21:25.527Z,5.68
2023-05-06T16:23:52.804Z,5.47
2023-05-06T16:26:19.980Z,5.53
2023-05-06T16:28:47.163Z,4.97
2023-05-06T16:31:14.313Z,4.90
2023-05-06T16:33:41.428Z,4.57
2023-05-06T16:36:08.966Z,4.60
2023-05-06T16:38:37.020Z,4.40
2023-05-06T16:41:04.456Z,4.82
2023-05-06T16:43:31.672Z,4.53
2023-05-06T16:45:58.766Z,4.72
2023-05-06T16:48:26.260Z,4.55
2023-05-06T16:50:53.523Z,4.43
2023-05-06T16:53:20.962Z,4.72
2023-05-06T16:55:49.130Z,4.60
2023-05-06T16:58:16.569Z,4.35
2023-05-06T17:00:44.041Z,4.80
2023-05-06T17:03:11.877Z,4.93
2023-05-06T17:05:39.925Z,4.40
2023-05-06T17:08:07.446Z,4.25
2023-05-06T17:10:35.037Z,4.82
2023-05-06T17:13:02.463Z,4.72
2023-05-06T17:15:29.705Z,5.20
2023-05-06T17:17:57.228Z,4.30
2023-05-06T17:20:25.327Z,4.43
2023-05-06T17:22:52.621Z,4.53
2023-05-06T17:25:19.936Z,4.57
2023-05-06T17:27:47.256Z,4.88
2023-05-06T17:30:15.904Z,4.47
2023-05-06T17:32:43.268Z,4.50
2023-05-06T17:35:10.809Z,4.88
2023-05-06T17:37:39.319Z,4.70
2023-05-06T17:40:07.794Z,5.55
2023-05-06T17:42:36.063Z,5.47
2023-05-06T17:45:03.446Z,5.28
2023-05-06T17:47:30.947Z,5.95
2023-05-06T17:49:58.646Z,4.97
2023-05-06T17:52:26.725Z,5.55
2023-05-06T17:55:06.266Z,5.25
2023-05-06T17:57:39.069Z,5.45
2023-05-06T18:00:08.000Z,5.32
2023-05-06T18:02:39.066Z,5.88
2023-05-06T18:05:06.747Z,5.47
2023-05-06T18:07:35.811Z,5.10
2023-05-06T18:10:02.977Z,5.40
2023-05-06T18:12:31.112Z,5.05
2023-05-06T18:14:58.679Z,5.75
2023-05-06T18:17:27.275Z,5.50
2023-05-06T18:19:55.923Z,5.07
2023-05-06T18:22:23.153Z,5.45
2023-05-06T18:25:07.245Z,5.63
2023-05-06T18:27:34.580Z,5.18
2023-05-06T18:30:02.928Z,4.90
2023-05-06T18:32:32.241Z,5.60
2023-05-06T18:34:59.731Z,5.03
2023-05-06T18:37:29.854Z,5.07
2023-05-06T18:39:57.155Z,5.60
2023-05-06T18:42:24.414Z,5.45
2023-05-06T18:44:51.532Z,5.15
2023-05-06T18:47:19.874Z,5.03
2023-05-06T18:49:47.004Z,5.70
2023-05-06T18:52:15.375Z,5.57
2023-05-06T18:54:42.452Z,6.00
2023-05-06T18:57:10.473Z,5.75
2023-05-06T18:59:37.617Z,5.30
2023-05-06T19:02:05.860Z,5.22
2023-05-06T19:04:33.791Z,5.28
2023-05-06T19:07:01.477Z,6.10
2023-05-06T19:09:29.067Z,6.85
2023-05-06T19:11:56.305Z,6.10
2023-05-06T19:14:24.924Z,6.20
2023-05-06T19:16:53.964Z,6.07
2023-05-06T19:19:21.338Z,5.68
2023-05-06T19:21:48.734Z,5.68
2023-05-06T19:24:16.174Z,6.18
2023-05-06T19:26:44.431Z,5.55
2023-05-06T19:29:11.761Z,6.05
2023-05-06T19:31:38.981Z,5.53
2023-05-06T19:34:06.502Z,5.88
2023-05-06T19:36:33.672Z,5.85
2023-05-06T19:39:00.899Z,5.65
2023-05-06T19:41:28.734Z,5.72
2023-05-06T19:43:55.820Z,5.57
2023-05-06T19:46:25.655Z,5.60
2023-05-06T19:48:53.169Z,5.20
2023-05-06T19:51:20.539Z,5.35
2023-05-06T19:53:49.133Z,5.07
2023-05-06T19:56:17.257Z,4.97
2023-05-06T19:58:44.614Z,5.20
2023-05-06T20:01:12.532Z,5.22
2023-05-06T20:03:40.010Z,5.13
2023-05-06T20:06:07.256Z,4.88
2023-05-06T20:08:35.487Z,4.85
2023-05-06T20:11:02.910Z,4.75
2023-05-06T20:13:30.210Z,5.70
2023-05-06T20:15:57.533Z,5.68
2023-05-06T20:18:25.358Z,5.22
2023-05-06T20:20:52.441Z,6.00
2023-05-06T20:23:19.568Z,6.68
2023-05-06T20:25:46.662Z,5.70
2023-05-06T20:28:13.835Z,5.80
2023-05-06T20:30:41.067Z,6.38
2023-05-06T20:33:08.395Z,6.03
2023-05-06T20:35:38.600Z,5.55
2023-05-06T20:38:06.617Z,5.72
2023-05-06T20:40:35.959Z,5.72
2023-05-06T20:43:03.257Z,5.88
2023-05-06T20:45:31.575Z,6.28
2023-05-06T20:47:59.071Z,5.82
2023-05-06T20:50:26.501Z,5.82
2023-05-06T20:52:54.600Z,5.25
2023-05-06T20:55:23.537Z,6.35
2023-05-06T20:57:51.035Z,5.88
2023-05-06T21:00:19.447Z,5.70
2023-05-06T21:02:46.623Z,6.07
2023-05-06T21:05:14.119Z,5.68
2023-05-06T21:07:41.520Z,6.25
2023-05-06T21:10:11.111Z,5.70
2023-05-06T21:12:38.675Z,5.63
2023-05-06T21:15:06.509Z,6.53
2023-05-06T21:17:33.998Z,5.80
2023-05-06T21:20:01.751Z,5.80
2023-05-06T21:22:30.064Z,6.47
2023-05-06T21:24:57.103Z,6.00
2023-05-06T21:27:24.316Z,6.35
2023-05-06T21:29:51.708Z,6.95
2023-05-06T21:32:18.981Z,6.65
2023-05-06T21:34:46.228Z,6.90
2023-05-06T21:37:13.424Z,6.03
2023-05-06T21:39:40.867Z,6.50
2023-05-06T21:42:08.045Z,6.50
2023-05-06T21:44:35.207Z,5.90
2023-05-06T21:47:02.395Z,7.13
2023-05-06T21:49:29.534Z,5.82
2023-05-06T21:51:56.700Z,5.68
2023-05-06T21:54:24.767Z,6.40
2023-05-06T21:56:51.937Z,6.63
2023-05-06T21:59:19.928Z,6.22
2023-05-06T22:01:47.077Z,6.07
2023-05-06T22:04:16.856Z,5.85
2023-05-06T22:06:44.218Z,5.53
2023-05-06T22:09:12.155Z,5.75
2023-05-06T22:11:39.251Z,5.88
2023-05-06T22:14:06.970Z,6.35
2023-05-06T22:16:35.826Z,5.88
2023-05-06T22:19:04.797Z,5.82
2023-05-06T22:21:33.809Z,6.05
2023-05-06T22:24:01.302Z,5.10
2023-05-06T22:26:28.657Z,5.28
2023-05-06T22:28:56.621Z,5.70
2023-05-06T22:31:24.893Z,5.15
2023-05-06T22:33:55.558Z,5.55
2023-05-06T22:36:23.200Z,5.75
2023-05-06T22:38:50.299Z,6.47
2023-05-06T22:41:18.427Z,6.85
2023-05-06T22:43:45.842Z,5.70
2023-05-06T22:46:13.113Z,6.60
2023-05-06T22:48:40.597Z,5.82
2023-05-06T22:51:07.897Z,5.70
2023-05-06T22:53:35.027Z,6.93
2023-05-06T22:56:02.201Z,6.43
2023-05-06T22:58:30.054Z,7.30
2023-05-06T23:00:57.736Z,7.10
2023-05-06T23:03:25.167Z,6.35
2023-05-06T23:05:52.284Z,6.72
2023-05-06T23:08:19.427Z,6.38
2023-05-06T23:10:47.194Z,6.85
2023-05-06T23:13:14.396Z,7.57
2023-05-06T23:15:41.504Z,6.65
2023-05-06T23:18:08.832Z,6.95
2023-05-06T23:20:35.965Z,7.43
2023-05-06T23:23:03.198Z,6.72
2023-05-06T23:25:30.300Z,6.50
2023-05-06T23:27:57.450Z,6.95
2023-05-06T23:30:24.647Z,6.72
2023-05-06T23:32:51.817Z,6.28
2023-05-06T23:35:19.010Z,6.53
2023-05-06T23:37:46.197Z,6.78
2023-05-06T23:40:14.077Z,7.40
2023-05-06T23:42:41.551Z,7.07
2023-05-06T23:45:09.601Z,6.35
2023-05-06T23:47:36.980Z,7.03
2023-05-06T23:50:04.348Z,6.55
2023-05-06T23:52:31.542Z,6.68
2023-05-06T23:54:58.641Z,8.13
2023-05-06T23:57:25.869Z,7.35
2023-05-06T23:59:52.980Z,7.25
